Time;durP1;ratioP1;P1;durP2;ratioP2;P2;SDS_P1;SDS_P2;PMS_P1;PMS_P2;Temp;Humidity;BMP_temperature;BMP_pressure;BME280_temperature;BME280_humidity;BME280_pressure;Samples;Min_cycle;Max_cycle;Signal;HPM_P1;HPM_P2
2021/12/27 04:01:24;;;;;;;2.50;1.37;;;8.20;88.00;;;;;;5693273;22;20572;-76
2021/12/27 04:03:54;;;;;;;2.50;1.30;;;8.20;88.50;;;;;;5033586;28;20444;-77
2021/12/27 04:06:25;;;;;;;2.60;1.70;;;8.30;88.40;;;;;;5033339;28;20443;-76
2021/12/27 04:08:52;;;;;;;2.30;1.10;;;8.30;88.20;;;;;;5033490;28;20941;-76
2021/12/27 04:11:18;;;;;;;2.53;1.23;;;8.30;87.70;;;;;;5033375;28;21024;-76
2021/12/27 04:13:45;;;;;;;2.73;1.57;;;8.30;88.10;;;;;;5034647;28;20506;-76
2021/12/27 04:16:12;;;;;;;2.63;1.47;;;8.30;88.20;;;;;;5033421;28;20455;-76
2021/12/27 04:18:40;;;;;;;2.50;1.30;;;8.50;87.80;;;;;;5033408;28;20450;-76
2021/12/27 04:21:07;;;;;;;2.20;1.20;;;8.60;87.30;;;;;;5033304;28;20475;-76
2021/12/27 04:23:33;;;;;;;2.53;1.20;;;8.70;86.80;;;;;;5033061;28;20458;-76
2021/12/27 04:26:00;;;;;;;2.77;1.33;;;8.70;86.90;;;;;;5033322;28;20500;-77
2021/12/27 04:28:27;;;;;;;2.30;1.20;;;8.70;86.90;;;;;;5032971;28;20509;-77
2021/12/27 04:30:54;;;;;;;2.30;1.20;;;8.80;86.40;;;;;;5033245;28;20522;-76
2021/12/27 04:33:20;;;;;;;2.40;1.20;;;8.70;86.10;;;;;;5032844;28;20475;-76
2021/12/27 04:35:48;;;;;;;2.20;1.20;;;8.50;87.10;;;;;;5033234;28;20454;-76
2021/12/27 04:38:15;;;;;;;2.50;1.20;;;8.50;87.10;;;;;;5033128;28;20857;-77
2021/12/27 04:40:44;;;;;;;2.23;1.10;;;8.60;87.00;;;;;;5033087;28;20467;-76
2021/12/27 04:43:14;;;;;;;2.30;1.30;;;8.40;87.00;;;;;;5033136;28;20494;-76
2021/12/27 04:45:42;;;;;;;2.30;1.20;;;8.10;88.00;;;;;;5033482;28;20521;-76
2021/12/27 04:48:09;;;;;;;2.17;1.00;;;8.10;88.40;;;;;;5032824;28;20806;-76
2021/12/27 04:50:36;;;;;;;2.40;1.40;;;8.00;88.70;;;;;;5033108;28;20439;-76
2021/12/27 04:53:05;;;;;;;2.20;1.00;;;8.00;89.20;;;;;;5033108;28;20856;-76
2021/12/27 04:55:34;;;;;;;2.30;1.00;;;8.00;88.90;;;;;;5033108;28;20458;-77
2021/12/27 04:58:01;;;;;;;2.27;1.13;;;8.10;89.40;;;;;;5033049;28;20877;-77
2021/12/27 05:00:29;;;;;;;2.70;1.30;;;8.20;88.90;;;;;;5032874;28;20451;-76
2021/12/27 05:02:58;;;;;;;2.70;1.37;;;8.30;88.50;;;;;;5033212;28;20490;-76
2021/12/27 05:05:25;;;;;;;2.40;1.20;;;8.30;87.90;;;;;;5033019;28;20464;-76
2021/12/27 05:07:52;;;;;;;2.30;0.90;;;8.10;88.80;;;;;;5032953;28;20451;-76
2021/12/27 05:10:20;;;;;;;2.40;1.10;;;8.20;88.20;;;;;;5032906;28;20440;-76
2021/12/27 05:12:47;;;;;;;2.30;1.10;;;8.00;88.80;;;;;;5032728;28;20540;-77
2021/12/27 05:15:13;;;;;;;2.60;1.00;;;8.00;89.20;;;;;;5033258;28;20435;-77
2021/12/27 05:17:40;;;;;;;2.30;1.13;;;7.90;89.70;;;;;;5034365;28;20482;-76
2021/12/27 05:20:08;;;;;;;2.20;1.00;;;7.90;89.50;;;;;;5036729;28;20446;-77
2021/12/27 05:22:35;;;;;;;2.40;1.10;;;7.90;89.80;;;;;;5036448;28;20507;-77
2021/12/27 05:25:02;;;;;;;2.30;1.20;;;8.00;89.40;;;;;;5036513;28;20447;-77
2021/12/27 05:27:31;;;;;;;2.70;1.50;;;8.10;89.40;;;;;;5036454;28;20458;-77
2021/12/27 05:29:57;;;;;;;2.07;0.93;;;8.20;88.80;;;;;;5036673;28;20448;-76
2021/12/27 05:32:24;;;;;;;2.27;1.00;;;8.30;88.80;;;;;;5036345;28;20930;-77
2021/12/27 05:34:51;;;;;;;2.57;1.40;;;8.30;88.00;;;;;;5036983;28;21028;-77
2021/12/27 05:37:17;;;;;;;2.60;1.20;;;8.10;88.30;;;;;;5036067;28;21005;-76
2021/12/27 05:39:44;;;;;;;2.83;1.40;;;8.10;88.80;;;;;;5036450;28;20455;-76
2021/12/27 05:42:11;;;;;;;2.30;1.10;;;7.90;89.60;;;;;;5036131;28;20479;-77
2021/12/27 05:44:39;;;;;;;2.20;0.97;;;7.90;89.50;;;;;;5036315;28;20444;-76
2021/12/27 05:47:06;;;;;;;2.70;1.70;;;8.00;89.60;;;;;;5035794;28;20954;-77
2021/12/27 05:49:33;;;;;;;2.70;1.50;;;8.30;89.20;;;;;;5036266;28;20505;-76
2021/12/27 05:51:59;;;;;;;2.50;1.63;;;8.30;88.10;;;;;;5035929;28;20498;-77
2021/12/27 05:54:26;;;;;;;2.30;1.10;;;8.20;88.40;;;;;;5035788;28;20474;-77
2021/12/27 05:56:53;;;;;;;2.50;1.40;;;8.30;88.30;;;;;;5035903;28;20576;-77
2021/12/27 05:59:19;;;;;;;2.30;1.00;;;8.30;88.20;;;;;;5035973;28;20447;-77
2021/12/27 06:01:48;;;;;;;2.50;1.40;;;8.20;87.90;;;;;;5035534;28;20483;-77
2021/12/27 06:04:14;;;;;;;2.37;1.23;;;8.30;87.70;;;;;;5035835;28;20447;-77
2021/12/27 06:06:41;;;;;;;2.33;1.13;;;8.40;87.40;;;;;;5036237;28;20447;-76
2021/12/27 06:09:08;;;;;;;2.60;1.30;;;8.50;86.60;;;;;;5035633;28;20497;-77
2021/12/27 06:11:35;;;;;;;2.40;1.40;;;8.60;86.60;;;;;;5035480;28;20467;-77
2021/12/27 06:14:02;;;;;;;2.77;1.23;;;8.70;86.20;;;;;;5035460;28;20483;-76
2021/12/27 06:16:29;;;;;;;2.23;1.10;;;8.70;85.40;;;;;;5035174;28;20793;-77
2021/12/27 06:18:57;;;;;;;3.07;1.10;;;8.80;84.90;;;;;;5035465;28;20448;-77
2021/12/27 06:21:24;;;;;;;2.20;1.03;;;8.80;84.20;;;;;;5035523;28;20493;-77
2021/12/27 06:23:50;;;;;;;2.70;1.33;;;8.70;84.50;;;;;;5035479;28;20478;-77
2021/12/27 06:26:17;;;;;;;2.30;1.10;;;8.50;84.60;;;;;;5035096;28;20856;-76
2021/12/27 06:28:45;;;;;;;2.53;1.43;;;8.40;84.90;;;;;;5035230;28;20505;-77
2021/12/27 06:31:11;;;;;;;2.30;1.10;;;8.40;85.20;;;;;;5036091;28;20478;-77
2021/12/27 06:33:38;;;;;;;2.50;1.37;;;8.30;85.50;;;;;;5035010;28;20997;-77
2021/12/27 06:36:06;;;;;;;2.50;1.37;;;8.30;85.70;;;;;;5035243;28;20447;-77
2021/12/27 06:38:33;;;;;;;2.60;1.47;;;8.50;85.00;;;;;;5035015;28;20944;-76
2021/12/27 06:41:01;;;;;;;2.70;1.60;;;8.50;84.70;;;;;;5035069;28;20474;-77
2021/12/27 06:43:28;;;;;;;2.40;1.20;;;8.50;84.80;;;;;;5035432;28;20458;-77
2021/12/27 06:45:55;;;;;;;2.60;1.50;;;8.60;84.40;;;;;;5035103;28;20513;-77
2021/12/27 06:48:21;;;;;;;2.30;1.23;;;8.50;84.70;;;;;;5034959;28;20498;-77
2021/12/27 06:50:48;;;;;;;2.30;1.17;;;8.50;84.50;;;;;;5034880;28;20525;-77
2021/12/27 06:53:16;;;;;;;2.90;1.70;;;8.60;83.90;;;;;;5034743;28;20485;-77
2021/12/27 06:55:43;;;;;;;2.70;1.60;;;8.60;83.30;;;;;;5034630;28;20973;-77
2021/12/27 06:58:10;;;;;;;2.43;1.63;;;8.70;82.90;;;;;;5034588;28;20439;-77
2021/12/27 07:00:37;;;;;;;3.10;2.13;;;8.70;82.90;;;;;;5034570;28;20478;-77
2021/12/27 07:03:04;;;;;;;3.17;2.80;;;8.60;82.60;;;;;;5035141;28;20432;-77
2021/12/27 07:05:31;;;;;;;4.23;2.70;;;8.60;82.20;;;;;;5034806;28;20444;-77
2021/12/27 07:07:57;;;;;;;7.30;2.97;;;8.50;82.40;;;;;;5034614;28;20505;-77
2021/12/27 07:10:25;;;;;;;3.00;2.30;;;8.50;82.00;;;;;;5034584;28;20448;-77
2021/12/27 07:12:52;;;;;;;2.90;1.83;;;8.50;81.80;;;;;;5034910;28;20520;-77
2021/12/27 07:15:19;;;;;;;3.53;2.00;;;8.50;81.90;;;;;;5034323;28;20891;-77
2021/12/27 07:17:45;;;;;;;2.50;1.60;;;8.40;82.10;;;;;;5034376;28;20447;-77
2021/12/27 07:20:12;;;;;;;2.83;1.70;;;8.30;82.50;;;;;;5034076;28;20451;-77
2021/12/27 07:22:39;;;;;;;2.50;1.50;;;8.20;83.60;;;;;;5033885;28;20467;-77
2021/12/27 07:25:06;;;;;;;2.67;1.67;;;8.10;84.20;;;;;;5034246;28;20497;-77
2021/12/27 07:27:35;;;;;;;3.00;1.67;;;8.10;84.00;;;;;;5034215;28;20451;-77
2021/12/27 07:30:06;;;;;;;2.53;1.50;;;8.10;84.60;;;;;;5034189;28;20446;-76
2021/12/27 07:32:32;;;;;;;2.60;1.53;;;8.10;84.20;;;;;;5034276;28;20467;-76
2021/12/27 07:34:59;;;;;;;4.00;1.60;;;8.10;84.50;;;;;;5033717;28;20804;-76
2021/12/27 07:37:26;;;;;;;2.50;1.50;;;8.00;84.90;;;;;;5034007;28;20481;-76
2021/12/27 07:39:53;;;;;;;3.00;1.23;;;7.90;85.50;;;;;;5033697;28;20497;-76
2021/12/27 07:42:19;;;;;;;2.33;1.10;;;7.80;86.40;;;;;;5033666;28;20471;-77
2021/12/27 07:44:47;;;;;;;2.77;1.47;;;7.90;86.90;;;;;;5033608;28;20859;-76
2021/12/27 07:47:14;;;;;;;2.50;1.00;;;8.10;86.30;;;;;;5033845;28;20525;-77
2021/12/27 07:49:41;;;;;;;2.20;1.00;;;8.20;85.70;;;;;;5033496;28;20509;-77
2021/12/27 07:52:09;;;;;;;2.63;1.33;;;8.30;85.30;;;;;;5033726;28;20538;-77
2021/12/27 07:54:36;;;;;;;2.60;1.20;;;8.40;85.00;;;;;;5033323;28;20491;-77
2021/12/27 07:57:03;;;;;;;5.10;1.43;;;8.30;86.00;;;;;;5033673;28;20454;-77
2021/12/27 07:59:30;;;;;;;2.70;1.43;;;8.30;86.40;;;;;;5033684;28;20525;-77
2021/12/27 08:01:59;;;;;;;3.17;2.27;;;8.60;84.80;;;;;;5033409;28;20483;-77
2021/12/27 08:04:26;;;;;;;3.57;2.00;;;8.80;83.30;;;;;;5033550;28;20443;-77
2021/12/27 08:06:53;;;;;;;2.97;2.03;;;8.70;82.50;;;;;;5033476;28;20447;-76
2021/12/27 08:09:19;;;;;;;2.50;1.47;;;8.70;82.20;;;;;;5033491;28;20501;-76
2021/12/27 08:11:46;;;;;;;2.90;1.67;;;8.70;81.90;;;;;;5033112;28;21044;-77
2021/12/27 08:14:13;;;;;;;2.67;1.83;;;8.40;83.00;;;;;;5033325;28;20498;-77
2021/12/27 08:16:40;;;;;;;2.60;1.60;;;8.70;83.00;;;;;;5033404;28;20875;-77
2021/12/27 08:19:08;;;;;;;2.37;1.40;;;9.00;81.90;;;;;;5033326;28;20455;-76
2021/12/27 08:21:37;;;;;;;3.20;2.27;;;8.90;82.20;;;;;;5033311;28;20467;-77
2021/12/27 08:24:04;;;;;;;2.40;1.70;;;8.80;82.50;;;;;;5033268;28;20462;-76
2021/12/27 08:26:30;;;;;;;2.50;1.50;;;8.70;83.40;;;;;;5032902;28;20939;-76
2021/12/27 08:29:01;;;;;;;2.60;1.60;;;8.80;83.60;;;;;;5033187;28;20443;-76
2021/12/27 08:31:27;;;;;;;2.67;1.67;;;9.00;83.30;;;;;;5033272;28;20521;-76
2021/12/27 08:33:54;;;;;;;2.77;1.60;;;9.20;82.50;;;;;;5033219;28;20549;-76
2021/12/27 08:36:22;;;;;;;2.90;1.90;;;9.10;82.30;;;;;;5033327;28;20446;-77
2021/12/27 08:38:50;;;;;;;2.37;1.30;;;8.90;83.30;;;;;;5033243;28;20505;-76
2021/12/27 08:41:18;;;;;;;2.30;1.27;;;9.10;83.30;;;;;;5032989;28;20529;-76
2021/12/27 08:43:45;;;;;;;2.70;1.60;;;9.20;83.00;;;;;;5033024;28;20447;-76
2021/12/27 08:46:12;;;;;;;2.50;1.40;;;9.30;83.10;;;;;;5033040;28;20482;-76
2021/12/27 08:48:40;;;;;;;2.40;1.30;;;9.40;82.90;;;;;;5032551;28;20517;-76
2021/12/27 08:51:07;;;;;;;2.93;1.63;;;9.40;83.00;;;;;;5032809;28;20471;-76
2021/12/27 08:53:35;;;;;;;2.60;1.47;;;9.50;82.40;;;;;;5035405;28;20439;-76
2021/12/27 08:56:02;;;;;;;2.70;1.80;;;9.90;82.30;;;;;;5037069;28;20533;-76
2021/12/27 08:58:28;;;;;;;2.60;1.60;;;10.10;81.40;;;;;;5036659;28;20443;-76
2021/12/27 09:00:55;;;;;;;2.97;1.77;;;10.40;80.40;;;;;;5036684;28;20566;-76
2021/12/27 09:03:22;;;;;;;2.73;1.63;;;10.40;79.90;;;;;;5036834;28;20505;-76
2021/12/27 09:05:49;;;;;;;2.73;1.77;;;10.40;79.90;;;;;;5036846;28;20443;-76
2021/12/27 09:08:16;;;;;;;2.77;1.97;;;10.50;80.10;;;;;;5036727;28;20478;-76
2021/12/27 09:10:44;;;;;;;2.70;1.73;;;10.40;79.90;;;;;;5036580;28;20537;-77
2021/12/27 09:13:11;;;;;;;2.80;1.90;;;10.30;80.50;;;;;;5036574;28;20513;-76
2021/12/27 09:15:37;;;;;;;2.83;1.80;;;10.40;80.30;;;;;;5036714;28;20482;-76
2021/12/27 09:18:04;;;;;;;3.57;2.10;;;10.40;79.90;;;;;;5036463;28;20442;-77
2021/12/27 09:20:31;;;;;;;3.17;1.93;;;10.30;81.00;;;;;;5036421;28;20447;-76
2021/12/27 09:22:58;;;;;;;3.37;2.17;;;10.00;80.50;;;;;;5036408;28;20962;-76
2021/12/27 09:25:25;;;;;;;3.50;2.40;;;9.90;81.70;;;;;;5036354;28;20517;-76
2021/12/27 09:27:53;;;;;;;3.03;2.07;;;10.00;82.30;;;;;;5036363;28;20454;-77
2021/12/27 09:30:20;;;;;;;2.80;2.00;;;9.90;81.80;;;;;;5036307;28;20497;-76
2021/12/27 09:32:48;;;;;;;2.90;1.90;;;10.10;82.60;;;;;;5036172;28;20462;-76
2021/12/27 09:35:15;;;;;;;2.90;2.00;;;10.20;82.50;;;;;;5036207;28;20479;-76
2021/12/27 09:37:42;;;;;;;2.90;2.00;;;10.30;82.60;;;;;;5035942;28;21016;-76
2021/12/27 09:40:10;;;;;;;2.80;1.60;;;10.50;81.50;;;;;;5036178;28;20447;-76
2021/12/27 09:42:36;;;;;;;2.50;1.47;;;10.30;81.10;;;;;;5036104;28;20533;-76
2021/12/27 09:45:07;;;;;;;2.43;1.50;;;10.00;81.90;;;;;;5036171;28;20443;-76
2021/12/27 09:47:34;;;;;;;2.57;1.70;;;10.10;81.60;;;;;;5036012;28;20517;-76
2021/12/27 09:50:01;;;;;;;2.37;1.43;;;9.90;81.80;;;;;;5035615;28;20797;-76
2021/12/27 09:52:28;;;;;;;3.07;1.80;;;9.70;82.80;;;;;;5035859;28;20463;-75
2021/12/27 09:54:56;;;;;;;2.43;1.40;;;9.70;83.50;;;;;;5035516;28;20825;-76
2021/12/27 09:57:22;;;;;;;3.37;2.20;;;9.50;83.70;;;;;;5035806;28;20463;-76
2021/12/27 09:59:49;;;;;;;2.33;1.20;;;9.60;84.00;;;;;;5035757;28;20443;-76
2021/12/27 10:02:17;;;;;;;2.43;1.43;;;9.60;83.20;;;;;;5035237;28;20490;-77
2021/12/27 10:04:45;;;;;;;2.40;1.30;;;9.50;83.60;;;;;;5035246;28;20943;-77
2021/12/27 10:07:19;;;;;;;2.40;1.10;;;9.60;84.40;;;;;;5035640;28;20444;-76
2021/12/27 10:09:52;;;;;;;2.80;1.50;;;9.80;83.80;;;;;;5035661;28;20444;-76
2021/12/27 10:12:20;;;;;;;2.20;1.10;;;9.80;84.40;;;;;;5035188;28;20850;-76
2021/12/27 10:14:46;;;;;;;2.33;1.20;;;10.00;82.90;;;;;;5166144;22;20890;-75
2021/12/27 10:17:13;;;;;;;2.53;1.60;;;10.20;82.30;;;;;;5055557;28;20531;-76
2021/12/27 10:19:41;;;;;;;2.27;1.20;;;10.30;82.20;;;;;;5055704;28;20435;-75
2021/12/27 10:22:11;;;;;;;2.53;1.30;;;10.30;82.50;;;;;;5055522;28;20442;-76
2021/12/27 10:24:39;;;;;;;2.50;1.50;;;10.50;81.60;;;;;;5055540;28;20538;-75
2021/12/27 10:27:06;;;;;;;2.20;1.20;;;10.60;80.90;;;;;;5055384;28;20473;-75
2021/12/27 10:29:35;;;;;;;2.10;0.90;;;10.70;80.10;;;;;;5055331;28;20450;-75
2021/12/27 10:32:05;;;;;;;2.20;1.00;;;10.90;80.30;;;;;;5066133;28;20437;-74
2021/12/27 10:34:34;;;;;;;2.17;1.00;;;10.60;79.80;;;;;;5065901;28;20462;-75
2021/12/27 10:37:07;;;;;;;2.70;1.30;;;10.40;81.50;;;;;;5065620;28;21006;-75
2021/12/27 10:39:50;;;;;;;2.20;1.10;;;10.30;81.50;;;;;;5065421;28;20427;-75
2021/12/27 10:42:19;;;;;;;2.20;1.03;;;10.40;81.30;;;;;;5065287;28;20472;-75
2021/12/27 10:44:46;;;;;;;2.90;1.60;;;10.60;81.20;;;;;;5060178;28;20978;-75
2021/12/27 10:47:44;;;;;;;2.20;1.17;;;10.40;81.40;;;;;;5062840;28;20447;-75
2021/12/27 10:50:14;;;;;;;2.70;1.50;;;10.30;81.70;;;;;;5054443;28;20450;-75
2021/12/27 10:52:51;;;;;;;2.07;0.80;;;10.40;82.70;;;;;;5061870;28;20457;-75
2021/12/27 10:55:19;;;;;;;2.40;1.20;;;10.90;83.20;;;;;;5054706;28;20535;-75
2021/12/27 10:57:47;;;;;;;2.37;1.23;;;12.00;78.20;;;;;;5054676;28;20533;-75
2021/12/27 11:00:30;;;;;;;2.10;0.90;;;12.80;73.90;;;;;;5054634;28;20500;-75
2021/12/27 11:03:01;;;;;;;2.60;1.40;;;13.60;72.80;;;;;;5054291;28;20897;-75
2021/12/27 11:05:29;;;;;;;2.30;1.10;;;14.00;70.10;;;;;;5054496;28;20466;-75
2021/12/27 11:08:00;;;;;;;2.40;1.27;;;13.00;72.20;;;;;;5054464;28;20508;-75
2021/12/27 11:10:28;;;;;;;2.10;0.90;;;12.40;74.50;;;;;;5054442;28;20431;-75
2021/12/27 11:12:59;;;;;;;2.20;1.07;;;11.70;77.10;;;;;;5054337;28;20857;-75
2021/12/27 11:15:26;;;;;;;2.40;1.40;;;11.50;78.30;;;;;;5053070;28;20503;-75
2021/12/27 11:17:54;;;;;;;2.60;1.20;;;11.30;79.40;;;;;;5054699;28;20865;-75
2021/12/27 11:20:21;;;;;;;2.30;1.10;;;11.20;79.20;;;;;;5054262;28;20451;-75
2021/12/27 11:22:51;;;;;;;2.30;1.10;;;11.00;79.70;;;;;;5054163;28;20446;-75
2021/12/27 11:25:28;;;;;;;2.30;1.20;;;11.00;80.30;;;;;;5054097;28;20466;-75
2021/12/27 11:27:55;;;;;;;2.20;0.90;;;11.10;80.50;;;;;;5054226;28;20488;-75
2021/12/27 11:30:24;;;;;;;2.10;0.93;;;11.00;80.20;;;;;;5054098;28;20499;-75
2021/12/27 11:33:12;;;;;;;2.27;1.20;;;11.00;80.90;;;;;;5054018;28;20504;-75
2021/12/27 11:36:01;;;;;;;2.23;1.17;;;10.90;80.60;;;;;;5053662;28;20969;-75
2021/12/27 11:38:30;;;;;;;2.30;1.03;;;10.90;80.80;;;;;;5053704;28;20482;-75
2021/12/27 11:40:59;;;;;;;2.40;1.30;;;11.10;81.10;;;;;;5053973;28;20442;-75
2021/12/27 11:43:46;;;;;;;2.37;1.00;;;11.00;81.30;;;;;;5053788;28;20450;-75
2021/12/27 11:46:13;;;;;;;2.23;1.40;;;11.30;81.50;;;;;;5053867;28;20419;-76
2021/12/27 11:48:45;;;;;;;2.20;1.10;;;11.30;79.70;;;;;;5054024;28;20500;-75
2021/12/27 11:51:12;;;;;;;2.13;0.97;;;11.00;79.70;;;;;;5054053;28;20423;-75
2021/12/27 11:53:47;;;;;;;2.30;1.10;;;11.00;80.20;;;;;;5053664;28;20471;-75
2021/12/27 11:56:19;;;;;;;2.20;1.10;;;11.10;80.30;;;;;;5053743;28;20466;-75
2021/12/27 11:58:50;;;;;;;2.13;1.10;;;10.90;80.00;;;;;;5053655;28;20469;-75
2021/12/27 12:01:36;;;;;;;2.17;1.00;;;10.80;80.60;;;;;;5057576;28;20484;-75
2021/12/27 12:04:03;;;;;;;2.47;1.37;;;10.80;80.90;;;;;;5063529;28;20496;-75
2021/12/27 12:06:41;;;;;;;2.20;1.10;;;10.80;81.00;;;;;;5060216;28;20441;-76
2021/12/27 12:09:15;;;;;;;2.70;1.50;;;10.70;81.30;;;;;;5062365;28;20932;-75
2021/12/27 12:11:44;;;;;;;2.37;1.53;;;10.70;81.30;;;;;;5060242;28;20450;-75
2021/12/27 12:14:29;;;;;;;2.40;1.40;;;10.80;81.20;;;;;;5059792;28;20842;-76
2021/12/27 12:16:56;;;;;;;2.57;1.37;;;10.80;81.20;;;;;;5059556;28;20494;-75
2021/12/27 12:19:37;;;;;;;2.40;1.30;;;11.00;80.80;;;;;;5059656;28;20447;-76
2021/12/27 12:22:05;;;;;;;2.20;1.00;;;11.10;80.60;;;;;;5059636;28;20446;-75
2021/12/27 12:24:32;;;;;;;2.43;1.20;;;11.20;79.60;;;;;;5059306;28;20489;-76
2021/12/27 12:27:03;;;;;;;2.47;1.20;;;10.90;79.40;;;;;;5062086;28;20929;-76
2021/12/27 12:29:37;;;;;;;2.40;1.30;;;11.00;80.00;;;;;;5066792;28;20442;-76
2021/12/27 12:32:06;;;;;;;2.30;1.20;;;11.10;79.50;;;;;;5065992;28;20439;-75
2021/12/27 12:34:37;;;;;;;2.37;1.20;;;11.10;79.30;;;;;;5067360;28;20469;-75
2021/12/27 12:37:09;;;;;;;2.40;1.23;;;11.10;79.60;;;;;;5067553;28;20469;-75
2021/12/27 12:39:39;;;;;;;2.20;1.17;;;11.00;79.40;;;;;;5066627;28;20437;-76
2021/12/27 12:42:16;;;;;;;2.30;1.10;;;11.30;79.90;;;;;;5066424;28;20441;-75
2021/12/27 12:44:47;;;;;;;2.50;1.43;;;11.60;78.40;;;;;;5066614;28;20545;-75
2021/12/27 12:47:14;;;;;;;2.20;1.10;;;11.90;78.20;;;;;;5065870;28;20442;-76
2021/12/27 12:49:41;;;;;;;2.20;1.00;;;12.10;77.10;;;;;;5065942;28;20442;-76
2021/12/27 12:52:08;;;;;;;2.20;1.20;;;12.10;77.30;;;;;;5065331;28;20460;-76
2021/12/27 12:54:38;;;;;;;2.40;1.40;;;12.10;76.90;;;;;;5066528;28;20477;-76
2021/12/27 12:57:08;;;;;;;2.50;1.30;;;12.00;77.40;;;;;;5064463;28;20462;-76
2021/12/27 12:59:39;;;;;;;3.00;1.40;;;12.00;77.70;;;;;;5064400;28;20454;-76
2021/12/27 13:02:08;;;;;;;2.20;0.93;;;12.10;78.10;;;;;;5063016;28;20434;-76
2021/12/27 13:04:40;;;;;;;2.10;1.10;;;11.80;78.40;;;;;;5059997;28;20462;-76
2021/12/27 13:07:07;;;;;;;2.30;1.00;;;11.90;78.70;;;;;;5059319;28;20952;-76
2021/12/27 13:09:45;;;;;;;2.20;1.13;;;11.80;78.60;;;;;;5059612;28;20472;-76
2021/12/27 13:12:14;;;;;;;2.20;1.20;;;11.60;79.00;;;;;;5059607;28;20438;-75
2021/12/27 13:14:42;;;;;;;2.20;1.07;;;11.30;79.00;;;;;;5059178;28;20535;-75
2021/12/27 13:17:15;;;;;;;2.30;1.10;;;11.30;79.60;;;;;;5059418;28;20485;-75
2021/12/27 13:20:04;;;;;;;2.30;1.00;;;11.00;80.60;;;;;;5059466;28;20450;-76
2021/12/27 13:22:42;;;;;;;2.10;1.00;;;10.90;81.00;;;;;;5059542;28;20426;-76
2021/12/27 13:25:09;;;;;;;2.20;1.10;;;11.00;80.80;;;;;;5059079;28;20972;-72
2021/12/27 13:27:36;;;;;;;2.30;1.00;;;11.00;80.60;;;;;;5059113;28;20937;-75
2021/12/27 13:30:10;;;;;;;2.50;1.47;;;10.80;81.50;;;;;;5059427;28;20541;-76
2021/12/27 13:32:37;;;;;;;2.40;1.00;;;10.70;81.50;;;;;;5059086;28;20925;-76
2021/12/27 13:35:04;;;;;;;2.70;1.40;;;10.60;82.40;;;;;;5059300;28;20520;-76
2021/12/27 13:37:35;;;;;;;2.33;1.03;;;10.60;82.50;;;;;;5059093;28;20478;-75
2021/12/27 13:40:11;;;;;;;2.50;1.30;;;10.60;82.40;;;;;;5055610;28;20442;-76
2021/12/27 13:42:38;;;;;;;2.60;1.10;;;10.40;83.00;;;;;;5055789;28;20948;-76
2021/12/27 13:45:11;;;;;;;2.33;1.13;;;10.30;83.10;;;;;;5056008;28;20527;-76
2021/12/27 13:47:38;;;;;;;2.30;1.20;;;10.30;83.40;;;;;;5056061;28;20427;-76
2021/12/27 13:50:06;;;;;;;2.33;1.20;;;10.30;83.50;;;;;;5055993;28;20446;-76
2021/12/27 13:52:45;;;;;;;2.60;1.10;;;10.40;83.30;;;;;;5055939;28;20485;-75
2021/12/27 13:55:22;;;;;;;2.50;1.30;;;10.30;83.00;;;;;;5056067;28;20553;-76
2021/12/27 13:57:49;;;;;;;2.30;1.10;;;10.40;83.80;;;;;;5055886;28;20476;-76
2021/12/27 14:00:24;;;;;;;2.10;1.00;;;10.40;82.80;;;;;;5055791;28;20450;-76
2021/12/27 14:02:51;;;;;;;2.30;1.10;;;10.40;83.50;;;;;;5055485;28;20977;-76
2021/12/27 14:05:25;;;;;;;2.40;1.10;;;10.60;83.10;;;;;;5060189;28;20872;-76
2021/12/27 14:07:53;;;;;;;2.17;1.00;;;10.70;82.40;;;;;;5061272;28;20426;-76
2021/12/27 14:10:20;;;;;;;2.20;1.00;;;10.70;82.50;;;;;;5059642;28;20942;-75
2021/12/27 14:12:58;;;;;;;2.37;1.30;;;10.70;82.50;;;;;;5059765;28;20826;-75
2021/12/27 14:15:29;;;;;;;2.10;0.90;;;10.70;82.70;;;;;;5059247;28;20473;-76
2021/12/27 14:18:08;;;;;;;2.17;1.03;;;10.70;82.10;;;;;;5059883;28;20470;-75
2021/12/27 14:20:35;;;;;;;2.40;1.23;;;10.50;82.30;;;;;;5058872;28;20438;-76
2021/12/27 14:23:08;;;;;;;2.20;1.10;;;10.40;83.10;;;;;;5059237;28;20485;-75
2021/12/27 14:25:35;;;;;;;2.43;1.47;;;10.10;83.90;;;;;;5057132;28;21011;-76
2021/12/27 14:28:02;;;;;;;2.43;1.13;;;10.20;84.40;;;;;;5055336;28;20496;-76
2021/12/27 14:30:31;;;;;;;2.70;1.33;;;10.40;84.10;;;;;;5055256;28;20454;-76
2021/12/27 14:33:04;;;;;;;2.30;1.10;;;10.50;83.40;;;;;;5055167;28;20450;-76
2021/12/27 14:35:33;;;;;;;2.43;1.20;;;10.30;83.90;;;;;;5055040;28;20462;-75
2021/12/27 14:38:02;;;;;;;2.43;1.60;;;10.40;83.90;;;;;;5054849;28;20942;-76
2021/12/27 14:40:31;;;;;;;2.83;1.77;;;10.30;83.60;;;;;;5055176;28;20504;-76
2021/12/27 14:42:58;;;;;;;2.50;1.30;;;10.40;83.90;;;;;;5055099;28;20450;-76
2021/12/27 14:45:26;;;;;;;2.57;1.40;;;10.40;83.80;;;;;;5054990;28;20467;-76
2021/12/27 14:47:55;;;;;;;2.60;1.40;;;10.30;83.50;;;;;;5054932;28;20492;-76
2021/12/27 14:50:24;;;;;;;2.50;1.57;;;10.20;84.50;;;;;;5053708;28;20496;-76
2021/12/27 14:52:51;;;;;;;2.53;1.40;;;10.20;84.40;;;;;;5054611;28;20894;-76
2021/12/27 14:55:19;;;;;;;2.80;1.13;;;10.20;84.90;;;;;;5054760;28;20462;-76
2021/12/27 14:57:46;;;;;;;2.67;1.60;;;10.30;84.80;;;;;;5054372;28;20914;-76
2021/12/27 15:00:15;;;;;;;2.40;1.30;;;10.50;84.30;;;;;;5054743;28;20447;-76
2021/12/27 15:02:42;;;;;;;2.80;1.60;;;10.60;84.00;;;;;;5054623;28;20883;-75
2021/12/27 15:05:10;;;;;;;2.43;1.27;;;10.70;83.30;;;;;;5054611;28;20469;-76
2021/12/27 15:07:37;;;;;;;2.20;1.27;;;10.70;83.10;;;;;;5054556;28;20450;-76
2021/12/27 15:10:04;;;;;;;2.50;1.30;;;10.80;82.80;;;;;;5054561;28;20443;-76
2021/12/27 15:12:31;;;;;;;2.40;1.33;;;10.80;83.00;;;;;;5054467;28;20477;-76
2021/12/27 15:14:58;;;;;;;2.40;1.23;;;10.70;82.90;;;;;;5054085;28;20547;-76
2021/12/27 15:17:28;;;;;;;2.80;1.60;;;10.80;82.90;;;;;;5054390;28;20543;-76
2021/12/27 15:19:54;;;;;;;2.30;1.20;;;10.60;83.10;;;;;;5054406;28;20451;-76
2021/12/27 15:22:22;;;;;;;2.30;1.50;;;10.70;83.40;;;;;;5055039;28;20477;-76
2021/12/27 15:24:50;;;;;;;2.40;1.30;;;10.70;83.20;;;;;;5054391;28;20465;-75
2021/12/27 15:27:18;;;;;;;2.33;1.37;;;10.80;82.90;;;;;;5054478;28;20442;-75
2021/12/27 15:29:45;;;;;;;2.77;1.70;;;10.90;82.60;;;;;;5054065;28;20461;-75
2021/12/27 15:32:12;;;;;;;2.33;1.43;;;10.90;82.40;;;;;;5054130;28;20442;-75
2021/12/27 15:34:39;;;;;;;2.60;1.60;;;11.00;82.20;;;;;;5054049;28;20544;-76
2021/12/27 15:37:06;;;;;;;2.47;1.40;;;11.00;82.10;;;;;;5053984;28;20532;-75
2021/12/27 15:39:34;;;;;;;2.93;1.73;;;10.80;82.20;;;;;;5054000;28;20442;-75
2021/12/27 15:42:01;;;;;;;2.70;1.53;;;10.70;82.50;;;;;;5053911;28;20442;-75
2021/12/27 15:44:27;;;;;;;2.60;1.70;;;10.70;82.70;;;;;;5053486;28;20973;-75
2021/12/27 15:46:54;;;;;;;3.83;2.30;;;10.80;82.50;;;;;;5053868;28;20453;-76
2021/12/27 15:49:21;;;;;;;2.80;2.10;;;10.80;82.30;;;;;;5053437;28;20808;-76
2021/12/27 15:51:48;;;;;;;3.17;2.33;;;10.70;82.60;;;;;;5053610;28;20516;-75
2021/12/27 15:54:15;;;;;;;2.70;1.80;;;10.50;83.30;;;;;;5053330;28;21035;-76
2021/12/27 15:56:43;;;;;;;3.20;2.57;;;10.50;83.40;;;;;;5053661;28;21068;-75
2021/12/27 15:59:10;;;;;;;2.47;1.63;;;10.60;83.10;;;;;;5053650;28;20504;-75
2021/12/27 16:01:38;;;;;;;3.20;2.00;;;10.70;83.00;;;;;;5053528;28;20454;-76
2021/12/27 16:04:05;;;;;;;3.40;2.50;;;10.60;83.20;;;;;;5053534;28;20508;-76
2021/12/27 16:06:32;;;;;;;2.93;2.10;;;10.70;83.00;;;;;;5053622;28;20798;-76
2021/12/27 16:08:58;;;;;;;3.00;1.83;;;10.80;82.70;;;;;;5053267;28;20991;-76
2021/12/27 16:11:25;;;;;;;2.67;1.90;;;10.90;82.50;;;;;;5053173;28;20443;-76
2021/12/27 16:13:53;;;;;;;3.10;1.90;;;10.90;82.30;;;;;;5076115;22;20458;-76
2021/12/27 16:16:24;;;;;;;2.97;2.17;;;10.80;82.10;;;;;;5033347;28;20451;-76
2021/12/27 16:18:50;;;;;;;2.60;1.80;;;10.80;82.50;;;;;;5033426;28;20534;-76
2021/12/27 16:21:18;;;;;;;3.00;2.00;;;10.70;82.90;;;;;;5033373;28;20447;-77
2021/12/27 16:23:45;;;;;;;2.83;1.50;;;10.60;83.00;;;;;;5033308;28;20443;-77
2021/12/27 16:26:14;;;;;;;2.60;1.80;;;10.70;82.90;;;;;;5032983;28;20977;-77
2021/12/27 16:28:41;;;;;;;2.63;1.83;;;10.50;83.00;;;;;;5033317;28;20485;-76
2021/12/27 16:31:09;;;;;;;2.77;1.77;;;10.30;84.00;;;;;;5033337;28;20803;-76
2021/12/27 16:33:35;;;;;;;2.70;1.63;;;10.50;83.80;;;;;;5033188;28;20497;-77
2021/12/27 16:36:03;;;;;;;3.00;1.90;;;10.40;83.80;;;;;;5033302;28;20513;-77
2021/12/27 16:38:30;;;;;;;2.97;2.00;;;10.50;83.70;;;;;;5033180;28;20562;-76
2021/12/27 16:40:56;;;;;;;2.77;1.70;;;10.40;83.80;;;;;;5032872;28;21013;-76
2021/12/27 16:43:23;;;;;;;2.87;2.10;;;10.50;83.70;;;;;;5033170;28;20450;-76
2021/12/27 16:45:50;;;;;;;2.63;2.00;;;10.50;83.60;;;;;;5033068;28;20467;-76
2021/12/27 16:48:18;;;;;;;2.73;1.87;;;10.30;84.00;;;;;;5033136;28;20451;-76
2021/12/27 16:50:47;;;;;;;2.60;1.80;;;10.20;84.80;;;;;;5032811;28;20876;-76
2021/12/27 16:53:14;;;;;;;3.40;2.07;;;10.00;85.30;;;;;;5033087;28;20851;-76
2021/12/27 16:55:41;;;;;;;4.00;2.10;;;10.10;85.60;;;;;;5033053;28;20474;-77
2021/12/27 16:58:07;;;;;;;3.10;2.00;;;10.10;85.50;;;;;;5033012;28;20478;-77